sensor_id;sensor_type;location;lat;lon;timestamp;temperature;humidity
45339;DHT22;31071;51.478;5.710;2023-08-21T00:00:44;21.60;99.90
45339;DHT22;31071;51.478;5.710;2023-08-21T00:03:09;21.70;99.90
45339;DHT22;31071;51.478;5.710;2023-08-21T00:05:35;23.00;99.90
45339;DHT22;31071;51.478;5.710;2023-08-21T00:08:00;22.20;99.90
45339;DHT22;31071;51.478;5.710;2023-08-21T00:10:26;20.80;99.90
45339;DHT22;31071;51.478;5.710;2023-08-21T00:12:52;21.30;99.90
45339;DHT22;31071;51.478;5.710;2023-08-21T00:15:17;21.60;99.90
45339;DHT22;31071;51.478;5.710;2023-08-21T00:17:43;19.90;99.90
45339;DHT22;31071;51.478;5.710;2023-08-21T00:20:09;22.40;99.90
45339;DHT22;31071;51.478;5.710;2023-08-21T00:22:36;19.80;99.90
45339;DHT22;31071;51.478;5.710;2023-08-21T00:25:02;19.90;99.90
45339;DHT22;31071;51.478;5.710;2023-08-21T00:27:28;19.80;99.90
45339;DHT22;31071;51.478;5.710;2023-08-21T00:29:53;19.60;99.90
45339;DHT22;31071;51.478;5.710;2023-08-21T00:32:19;22.70;99.90
45339;DHT22;31071;51.478;5.710;2023-08-21T00:34:44;21.90;99.90
45339;DHT22;31071;51.478;5.710;2023-08-21T00:37:10;20.40;99.90
45339;DHT22;31071;51.478;5.710;2023-08-21T00:39:36;21.50;99.90
45339;DHT22;31071;51.478;5.710;2023-08-21T00:42:02;19.50;99.90
45339;DHT22;31071;51.478;5.710;2023-08-21T00:44:27;19.50;99.90
45339;DHT22;31071;51.478;5.710;2023-08-21T00:46:53;22.00;99.90
45339;DHT22;31071;51.478;5.710;2023-08-21T00:49:19;19.40;99.90
45339;DHT22;31071;51.478;5.710;2023-08-21T00:51:45;20.30;99.90
45339;DHT22;31071;51.478;5.710;2023-08-21T00:54:11;20.50;99.90
45339;DHT22;31071;51.478;5.710;2023-08-21T00:56:37;19.90;99.90
45339;DHT22;31071;51.478;5.710;2023-08-21T00:59:03;20.60;99.90
45339;DHT22;31071;51.478;5.710;2023-08-21T01:01:29;21.00;99.90
45339;DHT22;31071;51.478;5.710;2023-08-21T01:03:55;20.70;99.90
45339;DHT22;31071;51.478;5.710;2023-08-21T01:06:21;21.00;99.90
45339;DHT22;31071;51.478;5.710;2023-08-21T01:09:00;18.60;99.90
45339;DHT22;31071;51.478;5.710;2023-08-21T01:16:47;19.20;99.90
45339;DHT22;31071;51.478;5.710;2023-08-21T01:19:31;19.20;99.90
45339;DHT22;31071;51.478;5.710;2023-08-21T01:21:58;20.60;99.90
45339;DHT22;31071;51.478;5.710;2023-08-21T01:24:24;20.60;99.90
45339;DHT22;31071;51.478;5.710;2023-08-21T01:26:50;22.40;99.90
45339;DHT22;31071;51.478;5.710;2023-08-21T01:29:16;21.20;99.90
45339;DHT22;31071;51.478;5.710;2023-08-21T01:31:46;20.20;99.90
45339;DHT22;31071;51.478;5.710;2023-08-21T01:34:13;19.20;99.90
45339;DHT22;31071;51.478;5.710;2023-08-21T01:36:39;21.50;99.90
45339;DHT22;31071;51.478;5.710;2023-08-21T01:39:05;20.70;99.90
45339;DHT22;31071;51.478;5.710;2023-08-21T01:41:31;21.10;99.90
45339;DHT22;31071;51.478;5.710;2023-08-21T01:43:57;21.10;99.90
45339;DHT22;31071;51.478;5.710;2023-08-21T01:46:23;20.40;99.90
45339;DHT22;31071;51.478;5.710;2023-08-21T01:48:48;21.40;99.90
45339;DHT22;31071;51.478;5.710;2023-08-21T01:51:14;21.40;99.90
45339;DHT22;31071;51.478;5.710;2023-08-21T01:53:39;19.30;99.90
45339;DHT22;31071;51.478;5.710;2023-08-21T01:56:05;19.80;99.90
45339;DHT22;31071;51.478;5.710;2023-08-21T01:58:31;20.70;99.90
45339;DHT22;31071;51.478;5.710;2023-08-21T02:00:56;21.40;99.90
45339;DHT22;31071;51.478;5.710;2023-08-21T02:03:24;19.60;99.90
45339;DHT22;31071;51.478;5.710;2023-08-21T02:05:50;20.70;99.90
45339;DHT22;31071;51.478;5.710;2023-08-21T02:08:17;20.60;99.90
45339;DHT22;31071;51.478;5.710;2023-08-21T02:10:52;21.50;99.90
45339;DHT22;31071;51.478;5.710;2023-08-21T02:13:18;21.30;99.90
45339;DHT22;31071;51.478;5.710;2023-08-21T02:15:44;21.40;99.90
45339;DHT22;31071;51.478;5.710;2023-08-21T02:18:10;20.20;99.90
45339;DHT22;31071;51.478;5.710;2023-08-21T02:20:35;19.60;99.90
45339;DHT22;31071;51.478;5.710;2023-08-21T02:23:01;19.60;99.90
45339;DHT22;31071;51.478;5.710;2023-08-21T02:25:26;21.40;99.90
45339;DHT22;31071;51.478;5.710;2023-08-21T02:27:52;21.60;99.90
45339;DHT22;31071;51.478;5.710;2023-08-21T02:30:17;21.30;99.90
45339;DHT22;31071;51.478;5.710;2023-08-21T02:32:43;19.50;99.90
45339;DHT22;31071;51.478;5.710;2023-08-21T02:35:09;21.00;99.90
45339;DHT22;31071;51.478;5.710;2023-08-21T02:37:35;18.40;99.90
45339;DHT22;31071;51.478;5.710;2023-08-21T02:40:05;18.30;99.90
45339;DHT22;31071;51.478;5.710;2023-08-21T02:42:33;18.30;99.90
45339;DHT22;31071;51.478;5.710;2023-08-21T02:44:59;21.50;99.90
45339;DHT22;31071;51.478;5.710;2023-08-21T02:47:24;18.00;99.90
45339;DHT22;31071;51.478;5.710;2023-08-21T02:49:50;20.40;99.90
45339;DHT22;31071;51.478;5.710;2023-08-21T02:52:17;20.90;99.90
45339;DHT22;31071;51.478;5.710;2023-08-21T02:54:42;19.20;99.90
45339;DHT22;31071;51.478;5.710;2023-08-21T02:57:08;20.20;99.90
45339;DHT22;31071;51.478;5.710;2023-08-21T02:59:34;21.30;99.90
45339;DHT22;31071;51.478;5.710;2023-08-21T03:01:59;18.20;99.90
45339;DHT22;31071;51.478;5.710;2023-08-21T03:04:25;20.60;99.90
45339;DHT22;31071;51.478;5.710;2023-08-21T03:06:50;20.70;99.90
45339;DHT22;31071;51.478;5.710;2023-08-21T03:09:16;19.80;99.90
45339;DHT22;31071;51.478;5.710;2023-08-21T03:11:41;21.30;99.90
45339;DHT22;31071;51.478;5.710;2023-08-21T03:14:07;19.60;99.90
45339;DHT22;31071;51.478;5.710;2023-08-21T03:16:33;19.70;99.90
45339;DHT22;31071;51.478;5.710;2023-08-21T03:18:59;20.00;99.90
45339;DHT22;31071;51.478;5.710;2023-08-21T03:21:26;18.10;99.90
45339;DHT22;31071;51.478;5.710;2023-08-21T03:23:54;18.20;99.90
45339;DHT22;31071;51.478;5.710;2023-08-21T03:26:20;20.40;99.90
45339;DHT22;31071;51.478;5.710;2023-08-21T03:28:46;20.70;99.90
45339;DHT22;31071;51.478;5.710;2023-08-21T03:31:11;17.30;99.90
45339;DHT22;31071;51.478;5.710;2023-08-21T03:33:37;19.80;99.90
45339;DHT22;31071;51.478;5.710;2023-08-21T03:36:03;18.70;99.90
45339;DHT22;31071;51.478;5.710;2023-08-21T03:38:29;17.90;99.90
45339;DHT22;31071;51.478;5.710;2023-08-21T03:40:54;20.30;99.90
45339;DHT22;31071;51.478;5.710;2023-08-21T03:43:20;17.90;99.90
45339;DHT22;31071;51.478;5.710;2023-08-21T03:45:45;20.80;99.90
45339;DHT22;31071;51.478;5.710;2023-08-21T03:48:11;20.70;99.90
45339;DHT22;31071;51.478;5.710;2023-08-21T03:50:36;19.70;99.90
45339;DHT22;31071;51.478;5.710;2023-08-21T03:53:02;18.90;99.90
45339;DHT22;31071;51.478;5.710;2023-08-21T03:55:28;17.90;99.90
45339;DHT22;31071;51.478;5.710;2023-08-21T03:57:53;20.10;99.90
45339;DHT22;31071;51.478;5.710;2023-08-21T04:00:19;20.00;99.90
45339;DHT22;31071;51.478;5.710;2023-08-21T04:02:44;18.40;99.90
45339;DHT22;31071;51.478;5.710;2023-08-21T04:05:10;20.20;99.90
45339;DHT22;31071;51.478;5.710;2023-08-21T04:07:36;18.30;99.90
45339;DHT22;31071;51.478;5.710;2023-08-21T04:10:02;20.50;99.90
45339;DHT22;31071;51.478;5.710;2023-08-21T04:12:28;17.50;99.90
45339;DHT22;31071;51.478;5.710;2023-08-21T04:14:54;15.30;99.90
45339;DHT22;31071;51.478;5.710;2023-08-21T04:17:23;19.30;99.90
45339;DHT22;31071;51.478;5.710;2023-08-21T04:19:51;20.30;99.90
45339;DHT22;31071;51.478;5.710;2023-08-21T04:22:17;17.30;99.90
45339;DHT22;31071;51.478;5.710;2023-08-21T04:24:44;18.90;99.90
45339;DHT22;31071;51.478;5.710;2023-08-21T04:27:09;17.50;99.90
45339;DHT22;31071;51.478;5.710;2023-08-21T04:29:35;19.70;99.90
45339;DHT22;31071;51.478;5.710;2023-08-21T04:32:01;17.30;99.90
45339;DHT22;31071;51.478;5.710;2023-08-21T04:34:27;17.30;99.90
45339;DHT22;31071;51.478;5.710;2023-08-21T04:36:53;18.90;99.90
45339;DHT22;31071;51.478;5.710;2023-08-21T04:39:18;18.80;99.90
45339;DHT22;31071;51.478;5.710;2023-08-21T04:41:45;19.40;99.90
45339;DHT22;31071;51.478;5.710;2023-08-21T04:44:14;19.40;99.90
45339;DHT22;31071;51.478;5.710;2023-08-21T04:46:41;19.30;99.90
45339;DHT22;31071;51.478;5.710;2023-08-21T04:49:07;19.30;99.90
45339;DHT22;31071;51.478;5.710;2023-08-21T04:51:32;19.70;99.90
45339;DHT22;31071;51.478;5.710;2023-08-21T04:53:58;19.60;99.90
45339;DHT22;31071;51.478;5.710;2023-08-21T04:56:25;18.50;99.90
45339;DHT22;31071;51.478;5.710;2023-08-21T04:58:51;20.00;99.90
45339;DHT22;31071;51.478;5.710;2023-08-21T05:01:18;19.00;99.90
45339;DHT22;31071;51.478;5.710;2023-08-21T05:03:44;20.20;99.90
45339;DHT22;31071;51.478;5.710;2023-08-21T05:06:09;17.90;99.90
45339;DHT22;31071;51.478;5.710;2023-08-21T05:08:35;19.50;99.90
45339;DHT22;31071;51.478;5.710;2023-08-21T05:11:01;19.00;99.90
45339;DHT22;31071;51.478;5.710;2023-08-21T05:13:30;20.20;99.90
45339;DHT22;31071;51.478;5.710;2023-08-21T05:15:56;17.60;99.90
45339;DHT22;31071;51.478;5.710;2023-08-21T05:18:23;18.50;99.90
45339;DHT22;31071;51.478;5.710;2023-08-21T05:20:53;18.30;99.90
45339;DHT22;31071;51.478;5.710;2023-08-21T05:23:19;19.70;99.90
45339;DHT22;31071;51.478;5.710;2023-08-21T05:25:45;20.70;99.90
45339;DHT22;31071;51.478;5.710;2023-08-21T05:28:11;19.90;99.90
45339;DHT22;31071;51.478;5.710;2023-08-21T05:30:36;20.90;99.90
45339;DHT22;31071;51.478;5.710;2023-08-21T05:33:02;20.20;99.90
45339;DHT22;31071;51.478;5.710;2023-08-21T05:35:32;18.40;99.90
45339;DHT22;31071;51.478;5.710;2023-08-21T05:37:57;18.80;99.90
45339;DHT22;31071;51.478;5.710;2023-08-21T05:40:23;20.60;99.90
45339;DHT22;31071;51.478;5.710;2023-08-21T05:42:49;18.50;99.90
45339;DHT22;31071;51.478;5.710;2023-08-21T05:45:14;19.40;99.90
45339;DHT22;31071;51.478;5.710;2023-08-21T05:47:40;18.50;99.90
45339;DHT22;31071;51.478;5.710;2023-08-21T05:50:06;20.70;99.90
45339;DHT22;31071;51.478;5.710;2023-08-21T05:52:31;18.60;99.90
45339;DHT22;31071;51.478;5.710;2023-08-21T05:54:57;20.90;99.90
45339;DHT22;31071;51.478;5.710;2023-08-21T05:57:22;20.20;99.90
45339;DHT22;31071;51.478;5.710;2023-08-21T05:59:48;20.10;99.90
45339;DHT22;31071;51.478;5.710;2023-08-21T06:02:14;20.90;99.90
45339;DHT22;31071;51.478;5.710;2023-08-21T06:04:40;18.50;99.90
45339;DHT22;31071;51.478;5.710;2023-08-21T06:07:06;21.20;99.90
45339;DHT22;31071;51.478;5.710;2023-08-21T06:09:32;20.10;99.90
45339;DHT22;31071;51.478;5.710;2023-08-21T06:12:00;18.80;99.90
45339;DHT22;31071;51.478;5.710;2023-08-21T06:14:26;19.70;99.90
45339;DHT22;31071;51.478;5.710;2023-08-21T06:17:02;21.40;99.90
45339;DHT22;31071;51.478;5.710;2023-08-21T06:19:28;18.70;99.90
45339;DHT22;31071;51.478;5.710;2023-08-21T06:21:56;21.00;99.90
45339;DHT22;31071;51.478;5.710;2023-08-21T06:24:22;21.60;99.90
45339;DHT22;31071;51.478;5.710;2023-08-21T06:26:48;21.00;99.90
45339;DHT22;31071;51.478;5.710;2023-08-21T06:29:14;20.10;99.90
45339;DHT22;31071;51.478;5.710;2023-08-21T06:31:40;20.50;99.90
45339;DHT22;31071;51.478;5.710;2023-08-21T06:34:05;19.60;99.90
45339;DHT22;31071;51.478;5.710;2023-08-21T06:36:31;19.80;99.90
45339;DHT22;31071;51.478;5.710;2023-08-21T06:38:57;22.60;99.90
45339;DHT22;31071;51.478;5.710;2023-08-21T06:41:22;22.40;99.90
45339;DHT22;31071;51.478;5.710;2023-08-21T06:43:50;20.00;99.90
45339;DHT22;31071;51.478;5.710;2023-08-21T06:46:16;21.70;99.90
45339;DHT22;31071;51.478;5.710;2023-08-21T06:48:42;20.20;99.90
45339;DHT22;31071;51.478;5.710;2023-08-21T06:51:08;21.10;99.90
45339;DHT22;31071;51.478;5.710;2023-08-21T06:53:34;20.20;99.90
45339;DHT22;31071;51.478;5.710;2023-08-21T06:56:14;20.50;99.90
45339;DHT22;31071;51.478;5.710;2023-08-21T06:58:40;22.40;99.90
45339;DHT22;31071;51.478;5.710;2023-08-21T07:01:10;20.20;99.90
45339;DHT22;31071;51.478;5.710;2023-08-21T07:03:43;23.20;99.90
45339;DHT22;31071;51.478;5.710;2023-08-21T07:06:16;21.40;99.90
45339;DHT22;31071;51.478;5.710;2023-08-21T07:08:52;20.60;99.90
45339;DHT22;31071;51.478;5.710;2023-08-21T07:11:18;21.70;99.90
45339;DHT22;31071;51.478;5.710;2023-08-21T07:13:44;22.90;99.90
45339;DHT22;31071;51.478;5.710;2023-08-21T07:16:09;20.60;99.90
45339;DHT22;31071;51.478;5.710;2023-08-21T07:18:35;21.00;99.90
45339;DHT22;31071;51.478;5.710;2023-08-21T07:21:03;23.10;99.90
45339;DHT22;31071;51.478;5.710;2023-08-21T07:23:33;22.00;99.90
45339;DHT22;31071;51.478;5.710;2023-08-21T07:26:00;21.30;99.90
45339;DHT22;31071;51.478;5.710;2023-08-21T07:28:33;21.30;99.90
45339;DHT22;31071;51.478;5.710;2023-08-21T07:30:59;19.30;99.90
45339;DHT22;31071;51.478;5.710;2023-08-21T07:33:26;20.40;99.90
45339;DHT22;31071;51.478;5.710;2023-08-21T07:36:03;24.00;99.90
45339;DHT22;31071;51.478;5.710;2023-08-21T07:38:30;21.90;99.90
45339;DHT22;31071;51.478;5.710;2023-08-21T07:41:03;21.90;99.90
45339;DHT22;31071;51.478;5.710;2023-08-21T07:43:30;21.90;99.90
45339;DHT22;31071;51.478;5.710;2023-08-21T07:45:55;22.80;99.90
45339;DHT22;31071;51.478;5.710;2023-08-21T07:48:21;22.30;99.90
45339;DHT22;31071;51.478;5.710;2023-08-21T07:50:53;22.30;99.90
45339;DHT22;31071;51.478;5.710;2023-08-21T07:53:19;22.50;99.90
45339;DHT22;31071;51.478;5.710;2023-08-21T07:55:45;23.40;99.90
45339;DHT22;31071;51.478;5.710;2023-08-21T07:58:11;24.00;99.90
45339;DHT22;31071;51.478;5.710;2023-08-21T08:00:38;23.40;99.90
45339;DHT22;31071;51.478;5.710;2023-08-21T08:03:04;25.00;99.90
45339;DHT22;31071;51.478;5.710;2023-08-21T08:05:31;25.70;99.90
45339;DHT22;31071;51.478;5.710;2023-08-21T08:07:57;24.00;99.90
45339;DHT22;31071;51.478;5.710;2023-08-21T08:10:23;26.50;99.90
45339;DHT22;31071;51.478;5.710;2023-08-21T08:12:49;24.80;98.20
45339;DHT22;31071;51.478;5.710;2023-08-21T08:15:14;26.90;97.90
45339;DHT22;31071;51.478;5.710;2023-08-21T08:17:40;26.30;99.10
45339;DHT22;31071;51.478;5.710;2023-08-21T08:20:06;23.80;97.50
45339;DHT22;31071;51.478;5.710;2023-08-21T08:22:31;23.40;98.00
45339;DHT22;31071;51.478;5.710;2023-08-21T08:24:57;23.70;99.40
45339;DHT22;31071;51.478;5.710;2023-08-21T08:27:22;23.40;98.10
45339;DHT22;31071;51.478;5.710;2023-08-21T08:29:49;25.40;99.90
45339;DHT22;31071;51.478;5.710;2023-08-21T08:32:15;24.00;97.00
45339;DHT22;31071;51.478;5.710;2023-08-21T08:34:40;23.90;98.30
45339;DHT22;31071;51.478;5.710;2023-08-21T08:37:06;25.60;97.90
45339;DHT22;31071;51.478;5.710;2023-08-21T08:39:31;24.60;95.30
45339;DHT22;31071;51.478;5.710;2023-08-21T08:42:03;24.80;94.60
45339;DHT22;31071;51.478;5.710;2023-08-21T08:44:30;24.90;95.10
45339;DHT22;31071;51.478;5.710;2023-08-21T08:47:00;27.10;94.90
45339;DHT22;31071;51.478;5.710;2023-08-21T08:49:26;26.30;95.50
45339;DHT22;31071;51.478;5.710;2023-08-21T08:51:53;25.10;94.50
45339;DHT22;31071;51.478;5.710;2023-08-21T08:54:21;24.90;94.90
45339;DHT22;31071;51.478;5.710;2023-08-21T08:56:47;26.10;97.20
45339;DHT22;31071;51.478;5.710;2023-08-21T08:59:13;25.50;94.50
45339;DHT22;31071;51.478;5.710;2023-08-21T09:01:41;25.80;95.20
45339;DHT22;31071;51.478;5.710;2023-08-21T09:04:07;27.70;95.10
45339;DHT22;31071;51.478;5.710;2023-08-21T09:06:33;25.80;93.90
45339;DHT22;31071;51.478;5.710;2023-08-21T09:08:59;25.10;93.40
45339;DHT22;31071;51.478;5.710;2023-08-21T09:11:25;25.70;95.20
45339;DHT22;31071;51.478;5.710;2023-08-21T09:13:53;25.40;94.00
45339;DHT22;31071;51.478;5.710;2023-08-21T09:16:20;27.60;94.70
45339;DHT22;31071;51.478;5.710;2023-08-21T09:18:56;27.00;94.50
45339;DHT22;31071;51.478;5.710;2023-08-21T09:21:23;26.30;93.80
45339;DHT22;31071;51.478;5.710;2023-08-21T09:23:56;27.20;93.50
45339;DHT22;31071;51.478;5.710;2023-08-21T09:26:23;26.30;93.20
45339;DHT22;31071;51.478;5.710;2023-08-21T09:28:49;28.20;92.10
45339;DHT22;31071;51.478;5.710;2023-08-21T09:31:15;30.10;92.10
45339;DHT22;31071;51.478;5.710;2023-08-21T09:33:43;27.80;91.40
45339;DHT22;31071;51.478;5.710;2023-08-21T09:36:11;28.20;92.00
45339;DHT22;31071;51.478;5.710;2023-08-21T09:38:40;30.70;90.20
45339;DHT22;31071;51.478;5.710;2023-08-21T09:41:10;29.40;85.30
45339;DHT22;31071;51.478;5.710;2023-08-21T09:43:41;29.20;85.90
45339;DHT22;31071;51.478;5.710;2023-08-21T09:46:08;28.70;86.50
45339;DHT22;31071;51.478;5.710;2023-08-21T09:48:34;27.70;87.00
45339;DHT22;31071;51.478;5.710;2023-08-21T09:51:00;28.60;90.10
45339;DHT22;31071;51.478;5.710;2023-08-21T09:53:29;27.30;89.70
45339;DHT22;31071;51.478;5.710;2023-08-21T09:55:55;26.80;90.10
45339;DHT22;31071;51.478;5.710;2023-08-21T09:58:21;27.90;91.70
45339;DHT22;31071;51.478;5.710;2023-08-21T10:00:49;27.90;88.00
45339;DHT22;31071;51.478;5.710;2023-08-21T10:03:18;29.60;87.50
45339;DHT22;31071;51.478;5.710;2023-08-21T10:05:45;28.40;84.80
45339;DHT22;31071;51.478;5.710;2023-08-21T10:08:13;29.10;85.60
45339;DHT22;31071;51.478;5.710;2023-08-21T10:10:40;28.80;84.50
45339;DHT22;31071;51.478;5.710;2023-08-21T10:13:07;28.00;83.80
45339;DHT22;31071;51.478;5.710;2023-08-21T10:15:34;28.10;85.40
45339;DHT22;31071;51.478;5.710;2023-08-21T10:18:22;27.90;82.40
45339;DHT22;31071;51.478;5.710;2023-08-21T10:20:51;27.70;81.80
45339;DHT22;31071;51.478;5.710;2023-08-21T10:23:28;28.40;85.10
45339;DHT22;31071;51.478;5.710;2023-08-21T10:25:55;28.20;83.30
45339;DHT22;31071;51.478;5.710;2023-08-21T10:28:22;27.80;81.50
45339;DHT22;31071;51.478;5.710;2023-08-21T10:30:48;27.80;83.00
45339;DHT22;31071;51.478;5.710;2023-08-21T10:33:13;28.00;83.70
45339;DHT22;31071;51.478;5.710;2023-08-21T10:35:39;28.00;81.80
45339;DHT22;31071;51.478;5.710;2023-08-21T10:38:17;28.00;83.80
45339;DHT22;31071;51.478;5.710;2023-08-21T10:41:06;27.90;82.90
45339;DHT22;31071;51.478;5.710;2023-08-21T10:43:39;27.90;82.70
45339;DHT22;31071;51.478;5.710;2023-08-21T10:46:06;27.70;83.40
45339;DHT22;31071;51.478;5.710;2023-08-21T10:48:31;27.80;84.60
45339;DHT22;31071;51.478;5.710;2023-08-21T10:51:01;28.00;82.60
45339;DHT22;31071;51.478;5.710;2023-08-21T10:53:28;28.30;86.40
45339;DHT22;31071;51.478;5.710;2023-08-21T10:55:54;28.60;84.70
45339;DHT22;31071;51.478;5.710;2023-08-21T10:58:20;28.60;83.30
45339;DHT22;31071;51.478;5.710;2023-08-21T11:00:46;29.00;81.60
45339;DHT22;31071;51.478;5.710;2023-08-21T11:03:11;29.00;78.40
45339;DHT22;31071;51.478;5.710;2023-08-21T11:05:37;28.90;77.30
45339;DHT22;31071;51.478;5.710;2023-08-21T11:08:03;28.90;79.10
45339;DHT22;31071;51.478;5.710;2023-08-21T11:10:30;28.60;79.80
45339;DHT22;31071;51.478;5.710;2023-08-21T11:12:57;28.50;81.00
45339;DHT22;31071;51.478;5.710;2023-08-21T11:15:26;28.90;79.90
45339;DHT22;31071;51.478;5.710;2023-08-21T11:17:59;30.90;80.10
45339;DHT22;31071;51.478;5.710;2023-08-21T11:20:35;29.60;77.10
45339;DHT22;31071;51.478;5.710;2023-08-21T11:23:05;30.10;77.20
45339;DHT22;31071;51.478;5.710;2023-08-21T11:25:41;29.40;75.50
45339;DHT22;31071;51.478;5.710;2023-08-21T11:28:07;30.20;77.20
45339;DHT22;31071;51.478;5.710;2023-08-21T11:30:33;31.20;73.50
45339;DHT22;31071;51.478;5.710;2023-08-21T11:33:12;31.30;72.40
45339;DHT22;31071;51.478;5.710;2023-08-21T11:35:38;33.00;72.50
45339;DHT22;31071;51.478;5.710;2023-08-21T11:38:05;35.00;69.20
45339;DHT22;31071;51.478;5.710;2023-08-21T11:40:34;35.50;69.20
45339;DHT22;31071;51.478;5.710;2023-08-21T11:43:00;34.90;66.00
45339;DHT22;31071;51.478;5.710;2023-08-21T11:45:26;34.40;65.60
45339;DHT22;31071;51.478;5.710;2023-08-21T11:47:55;35.00;66.80
45339;DHT22;31071;51.478;5.710;2023-08-21T11:50:22;36.10;63.50
45339;DHT22;31071;51.478;5.710;2023-08-21T11:52:52;35.60;59.90
45339;DHT22;31071;51.478;5.710;2023-08-21T11:55:17;33.40;61.00
45339;DHT22;31071;51.478;5.710;2023-08-21T11:57:50;31.30;65.90
45339;DHT22;31071;51.478;5.710;2023-08-21T12:00:17;31.00;68.60
45339;DHT22;31071;51.478;5.710;2023-08-21T12:02:57;30.30;70.80
45339;DHT22;31071;51.478;5.710;2023-08-21T12:05:23;30.10;73.00
45339;DHT22;31071;51.478;5.710;2023-08-21T12:07:49;31.40;72.80
45339;DHT22;31071;51.478;5.710;2023-08-21T12:10:14;32.70;67.80
45339;DHT22;31071;51.478;5.710;2023-08-21T12:12:46;32.40;65.30
45339;DHT22;31071;51.478;5.710;2023-08-21T12:15:12;33.10;63.60
45339;DHT22;31071;51.478;5.710;2023-08-21T12:17:38;32.10;64.00
45339;DHT22;31071;51.478;5.710;2023-08-21T12:20:03;32.90;65.00
45339;DHT22;31071;51.478;5.710;2023-08-21T12:22:36;32.20;65.30
45339;DHT22;31071;51.478;5.710;2023-08-21T12:25:02;32.40;66.60
45339;DHT22;31071;51.478;5.710;2023-08-21T12:27:29;33.00;63.50
45339;DHT22;31071;51.478;5.710;2023-08-21T12:29:54;34.00;64.30
45339;DHT22;31071;51.478;5.710;2023-08-21T12:32:20;35.70;62.50
45339;DHT22;31071;51.478;5.710;2023-08-21T12:34:46;34.80;61.30
45339;DHT22;31071;51.478;5.710;2023-08-21T12:37:11;35.20;62.20
45339;DHT22;31071;51.478;5.710;2023-08-21T12:39:37;33.80;61.70
45339;DHT22;31071;51.478;5.710;2023-08-21T12:42:03;32.20;62.60
45339;DHT22;31071;51.478;5.710;2023-08-21T12:44:28;30.50;67.00
45339;DHT22;31071;51.478;5.710;2023-08-21T12:46:54;29.80;67.40
45339;DHT22;31071;51.478;5.710;2023-08-21T12:49:19;30.10;68.10
45339;DHT22;31071;51.478;5.710;2023-08-21T12:51:45;30.20;70.30
45339;DHT22;31071;51.478;5.710;2023-08-21T12:54:11;30.40;72.20
45339;DHT22;31071;51.478;5.710;2023-08-21T12:56:36;30.70;69.80
45339;DHT22;31071;51.478;5.710;2023-08-21T12:59:02;30.70;69.30
45339;DHT22;31071;51.478;5.710;2023-08-21T13:01:28;33.20;74.60
45339;DHT22;31071;51.478;5.710;2023-08-21T13:03:55;29.60;72.90
45339;DHT22;31071;51.478;5.710;2023-08-21T13:06:20;29.30;73.10
45339;DHT22;31071;51.478;5.710;2023-08-21T13:08:46;30.50;70.70
45339;DHT22;31071;51.478;5.710;2023-08-21T13:11:12;31.60;70.90
45339;DHT22;31071;51.478;5.710;2023-08-21T13:13:37;33.00;63.20
45339;DHT22;31071;51.478;5.710;2023-08-21T13:16:03;34.40;63.10
45339;DHT22;31071;51.478;5.710;2023-08-21T13:18:29;34.50;62.60
45339;DHT22;31071;51.478;5.710;2023-08-21T13:20:54;32.10;63.30
45339;DHT22;31071;51.478;5.710;2023-08-21T13:23:20;31.50;67.80
45339;DHT22;31071;51.478;5.710;2023-08-21T13:25:46;31.10;68.30
45339;DHT22;31071;51.478;5.710;2023-08-21T13:28:11;31.30;67.70
45339;DHT22;31071;51.478;5.710;2023-08-21T13:30:37;32.50;68.80
45339;DHT22;31071;51.478;5.710;2023-08-21T13:33:03;30.80;68.50
45339;DHT22;31071;51.478;5.710;2023-08-21T13:35:30;30.70;71.80
45339;DHT22;31071;51.478;5.710;2023-08-21T13:37:55;29.80;69.70
45339;DHT22;31071;51.478;5.710;2023-08-21T13:40:21;29.30;75.40
45339;DHT22;31071;51.478;5.710;2023-08-21T13:42:47;28.80;78.00
45339;DHT22;31071;51.478;5.710;2023-08-21T13:45:15;29.60;77.40
45339;DHT22;31071;51.478;5.710;2023-08-21T13:47:43;30.90;72.20
45339;DHT22;31071;51.478;5.710;2023-08-21T13:50:10;32.10;72.80
45339;DHT22;31071;51.478;5.710;2023-08-21T13:52:36;31.70;69.20
45339;DHT22;31071;51.478;5.710;2023-08-21T13:55:04;33.10;68.80
45339;DHT22;31071;51.478;5.710;2023-08-21T13:57:30;33.90;64.60
45339;DHT22;31071;51.478;5.710;2023-08-21T14:00:00;33.80;63.30
45339;DHT22;31071;51.478;5.710;2023-08-21T14:02:40;33.20;62.90
45339;DHT22;31071;51.478;5.710;2023-08-21T14:05:06;33.80;64.10
45339;DHT22;31071;51.478;5.710;2023-08-21T14:07:33;33.80;62.90
45339;DHT22;31071;51.478;5.710;2023-08-21T14:10:00;33.70;61.60
45339;DHT22;31071;51.478;5.710;2023-08-21T14:12:27;34.10;63.40
45339;DHT22;31071;51.478;5.710;2023-08-21T14:14:52;33.10;61.40
45339;DHT22;31071;51.478;5.710;2023-08-21T14:17:18;33.60;63.30
45339;DHT22;31071;51.478;5.710;2023-08-21T14:19:43;33.00;61.30
45339;DHT22;31071;51.478;5.710;2023-08-21T14:22:09;33.80;61.50
45339;DHT22;31071;51.478;5.710;2023-08-21T14:24:34;33.20;62.70
45339;DHT22;31071;51.478;5.710;2023-08-21T14:27:00;33.20;60.20
45339;DHT22;31071;51.478;5.710;2023-08-21T14:29:25;33.20;60.70
45339;DHT22;31071;51.478;5.710;2023-08-21T14:31:51;32.40;61.90
45339;DHT22;31071;51.478;5.710;2023-08-21T14:34:21;32.30;62.30
45339;DHT22;31071;51.478;5.710;2023-08-21T14:36:48;31.80;62.70
45339;DHT22;31071;51.478;5.710;2023-08-21T14:39:14;31.40;64.20
45339;DHT22;31071;51.478;5.710;2023-08-21T14:41:43;32.50;64.30
45339;DHT22;31071;51.478;5.710;2023-08-21T14:44:09;31.30;62.20
45339;DHT22;31071;51.478;5.710;2023-08-21T14:46:36;31.30;63.30
45339;DHT22;31071;51.478;5.710;2023-08-21T14:49:01;31.30;61.50
45339;DHT22;31071;51.478;5.710;2023-08-21T14:51:28;30.90;63.10
45339;DHT22;31071;51.478;5.710;2023-08-21T14:53:53;30.60;64.00
45339;DHT22;31071;51.478;5.710;2023-08-21T14:56:20;31.00;64.50
45339;DHT22;31071;51.478;5.710;2023-08-21T14:58:46;30.90;63.70
45339;DHT22;31071;51.478;5.710;2023-08-21T15:01:12;30.30;64.40
45339;DHT22;31071;51.478;5.710;2023-08-21T15:03:37;30.30;65.10
45339;DHT22;31071;51.478;5.710;2023-08-21T15:06:03;30.00;64.60
45339;DHT22;31071;51.478;5.710;2023-08-21T15:08:29;30.10;65.30
45339;DHT22;31071;51.478;5.710;2023-08-21T15:10:54;30.20;64.70
45339;DHT22;31071;51.478;5.710;2023-08-21T15:13:20;30.20;64.30
45339;DHT22;31071;51.478;5.710;2023-08-21T15:15:45;30.10;65.30
45339;DHT22;31071;51.478;5.710;2023-08-21T15:18:11;30.00;64.90
45339;DHT22;31071;51.478;5.710;2023-08-21T15:20:37;29.60;64.30
45339;DHT22;31071;51.478;5.710;2023-08-21T15:23:02;31.10;66.80
45339;DHT22;31071;51.478;5.710;2023-08-21T15:25:28;29.50;66.30
45339;DHT22;31071;51.478;5.710;2023-08-21T15:27:53;29.90;68.70
45339;DHT22;31071;51.478;5.710;2023-08-21T15:30:19;29.90;67.70
45339;DHT22;31071;51.478;5.710;2023-08-21T15:32:45;29.80;65.30